createdAt,value
2022-08-12T00:00:31.145Z,99072.50
2022-08-12T00:03:13.576Z,99071.61
2022-08-12T00:06:05.089Z,99074.86
2022-08-12T00:08:50.463Z,99074.50
2022-08-12T00:11:33.255Z,99073.56
2022-08-12T00:14:16.110Z,99068.42
2022-08-12T00:16:59.439Z,99065.71
2022-08-12T00:19:43.810Z,99061.73
2022-08-12T00:22:26.518Z,99064.42
2022-08-12T00:25:15.558Z,99063.19
2022-08-12T00:27:58.877Z,99062.13
2022-08-12T00:30:41.686Z,99064.51
2022-08-12T00:33:26.947Z,99058.89
2022-08-12T00:36:35.184Z,99064.06
2022-08-12T00:39:19.292Z,99055.02
2022-08-12T00:42:03.739Z,99057.02
2022-08-12T00:44:30.611Z,99057.55
2022-08-12T00:47:01.854Z,99056.78
2022-08-12T00:49:31.348Z,99059.45
2022-08-12T00:52:09.989Z,99057.45
2022-08-12T00:54:44.471Z,99058.11
2022-08-12T00:57:13.421Z,99061.42
2022-08-12T00:59:49.058Z,99058.58
2022-08-12T01:02:24.526Z,99062.40
2022-08-12T01:05:12.244Z,99058.89
2022-08-12T01:07:57.575Z,99059.36
2022-08-12T01:10:43.512Z,99062.85
2022-08-12T01:13:19.711Z,99065.08
2022-08-12T01:15:51.461Z,99063.30
2022-08-12T01:18:22.185Z,99062.05
2022-08-12T01:21:04.206Z,99059.54
2022-08-12T01:23:50.505Z,99060.52
2022-08-12T01:26:21.607Z,99059.59
2022-08-12T01:28:51.303Z,99063.41
2022-08-12T01:31:19.648Z,99066.42
2022-08-12T01:33:59.861Z,99069.42
2022-08-12T01:36:28.964Z,99069.23
2022-08-12T01:38:59.442Z,99065.81
2022-08-12T01:41:31.406Z,99063.31
2022-08-12T01:44:01.907Z,99062.39
2022-08-12T01:46:44.391Z,99061.66
2022-08-12T01:49:27.028Z,99056.16
2022-08-12T01:52:21.246Z,99057.16
2022-08-12T01:54:51.574Z,99054.92
2022-08-12T01:57:59.398Z,99049.16
2022-08-12T02:00:47.665Z,99044.79
2022-08-12T02:03:31.544Z,99049.60
2022-08-12T02:06:25.771Z,99046.61
2022-08-12T02:09:14.155Z,99045.52
2022-08-12T02:11:53.728Z,99042.41
2022-08-12T02:14:52.788Z,99041.10
2022-08-12T02:17:55.951Z,99036.88
2022-08-12T02:20:35.350Z,99039.24
2022-08-12T02:23:19.640Z,99040.27
2022-08-12T02:25:47.826Z,99043.69
2022-08-12T02:28:15.340Z,99042.69
2022-08-12T02:30:42.762Z,99037.77
2022-08-12T02:33:10.983Z,99036.83
2022-08-12T02:35:39.804Z,99035.26
2022-08-12T02:38:11.944Z,99033.18
2022-08-12T02:40:44.799Z,99029.64
2022-08-12T02:43:24.569Z,99033.02
2022-08-12T02:46:00.608Z,99028.25
2022-08-12T02:48:34.222Z,99031.52
2022-08-12T02:51:09.410Z,99030.52
2022-08-12T02:53:39.007Z,99030.71
2022-08-12T02:56:07.101Z,99026.21
2022-08-12T02:58:36.071Z,99023.71
2022-08-12T03:01:10.488Z,99019.50
2022-08-12T03:03:39.235Z,99026.45
2022-08-12T03:06:09.123Z,99032.95
2022-08-12T03:08:43.505Z,99034.24
2022-08-12T03:11:23.222Z,99034.73
2022-08-12T03:13:58.266Z,99034.27
2022-08-12T03:16:28.235Z,99029.92
2022-08-12T03:18:56.025Z,99022.15
2022-08-12T03:21:52.843Z,99019.96
2022-08-12T03:24:17.375Z,99022.67
2022-08-12T03:26:48.239Z,99019.54
2022-08-12T03:29:16.726Z,99025.62
2022-08-12T03:31:44.215Z,99023.55
2022-08-12T03:34:12.833Z,99025.63
2022-08-12T03:36:42.071Z,99026.61
2022-08-12T03:39:19.310Z,99026.99
2022-08-12T03:42:17.587Z,99025.89
2022-08-12T03:45:17.930Z,99027.83
2022-08-12T03:48:18.685Z,99026.39
2022-08-12T03:51:03.968Z,99023.33
2022-08-12T03:53:47.239Z,99022.81
2022-08-12T03:56:30.871Z,99023.92
2022-08-12T03:59:15.909Z,99020.95
2022-08-12T04:01:42.872Z,99015.92
2022-08-12T04:04:10.738Z,99015.45
2022-08-12T04:06:45.335Z,99018.66
2022-08-12T04:09:14.573Z,99017.09
2022-08-12T04:12:00.944Z,99016.67
2022-08-12T04:14:28.064Z,99019.07
2022-08-12T04:16:57.227Z,99022.36
2022-08-12T04:19:26.489Z,99024.94
2022-08-12T04:22:02.031Z,99025.20
2022-08-12T04:24:36.305Z,99029.05
2022-08-12T04:27:08.720Z,99034.39
2022-08-12T04:30:21.388Z,99039.98
2022-08-12T04:32:25.966Z,99039.00
2022-08-12T04:34:53.913Z,99041.42
2022-08-12T04:37:20.991Z,99041.32
2022-08-12T04:39:48.731Z,99043.46
2022-08-12T04:42:16.331Z,99046.85
2022-08-12T04:44:44.614Z,99044.91
2022-08-12T04:47:14.378Z,99050.67
2022-08-12T04:49:44.732Z,99049.64
2022-08-12T04:52:12.601Z,99045.51
2022-08-12T04:54:39.559Z,99044.24
2022-08-12T04:57:09.944Z,99042.06
2022-08-12T04:59:46.818Z,99038.94
2022-08-12T05:02:21.534Z,99044.21
2022-08-12T05:04:50.098Z,99043.02
2022-08-12T05:07:17.375Z,99033.15
2022-08-12T05:10:00.504Z,99031.66
2022-08-12T05:12:36.823Z,99034.74
2022-08-12T05:15:16.875Z,99036.11
2022-08-12T05:17:52.880Z,99039.79
2022-08-12T05:20:22.311Z,99043.29
2022-08-12T05:22:56.912Z,99043.48
2022-08-12T05:25:24.466Z,99047.28
2022-08-12T05:27:55.469Z,99049.42
2022-08-12T05:30:28.165Z,99043.91
2022-08-12T05:32:59.815Z,99052.89
2022-08-12T05:35:28.368Z,99050.14
2022-08-12T05:38:15.253Z,99045.77
2022-08-12T05:40:42.280Z,99046.17
2022-08-12T05:43:09.247Z,99040.81
2022-08-12T05:45:37.508Z,99041.23
2022-08-12T05:48:07.257Z,99036.02
2022-08-12T05:50:36.688Z,99037.10
2022-08-12T05:53:04.167Z,99036.75
2022-08-12T05:55:31.797Z,99039.87
2022-08-12T05:57:59.393Z,99039.20
2022-08-12T06:00:26.883Z,99040.01
2022-08-12T06:02:57.248Z,99040.23
2022-08-12T06:05:24.174Z,99040.45
2022-08-12T06:08:01.596Z,99035.44
2022-08-12T06:10:33.020Z,99034.27
2022-08-12T06:13:02.698Z,99035.16
2022-08-12T06:15:30.491Z,99038.79
2022-08-12T06:18:14.062Z,99043.06
2022-08-12T06:20:46.745Z,99046.02
2022-08-12T06:23:15.511Z,99045.42
2022-08-12T06:25:43.697Z,99037.65
2022-08-12T06:28:17.843Z,99038.80
2022-08-12T06:30:57.373Z,99039.61
2022-08-12T06:33:55.452Z,99042.34
2022-08-12T06:36:23.758Z,99042.94
2022-08-12T06:38:51.223Z,99043.72
2022-08-12T06:41:34.136Z,99042.23
2022-08-12T06:44:05.913Z,99036.03
2022-08-12T06:46:37.132Z,99036.96
2022-08-12T06:49:04.517Z,99044.92
2022-08-12T06:51:32.694Z,99043.08
2022-08-12T06:54:00.841Z,99046.10
2022-08-12T06:56:59.674Z,99044.52
2022-08-12T06:59:15.965Z,99040.10
2022-08-12T07:01:49.603Z,99041.52
2022-08-12T07:04:36.174Z,99040.48
2022-08-12T07:07:05.665Z,99041.42
2022-08-12T07:10:01.419Z,99039.77
2022-08-12T07:12:20.119Z,99041.55
2022-08-12T07:14:51.798Z,99037.10
2022-08-12T07:17:18.910Z,99035.39
2022-08-12T07:19:48.770Z,99032.77
2022-08-12T07:22:17.026Z,99029.41
2022-08-12T07:25:04.105Z,99022.44
2022-08-12T07:27:31.258Z,99021.98
2022-08-12T07:30:04.576Z,99020.22
2022-08-12T07:32:32.181Z,99018.98
2022-08-12T07:34:58.966Z,99019.45
2022-08-12T07:37:25.745Z,99023.48
2022-08-12T07:40:00.449Z,99023.56
2022-08-12T07:42:29.694Z,99021.63
2022-08-12T07:44:56.887Z,99013.89
2022-08-12T07:47:24.752Z,99012.50
2022-08-12T07:50:04.325Z,99013.12
2022-08-12T07:52:35.715Z,99007.66
2022-08-12T07:55:04.402Z,99006.41
2022-08-12T07:57:32.732Z,99007.46
2022-08-12T08:00:06.108Z,99006.08
2022-08-12T08:02:37.643Z,99009.98
2022-08-12T08:05:05.247Z,99010.63
2022-08-12T08:07:32.236Z,99007.42
2022-08-12T08:10:00.726Z,99006.46
2022-08-12T08:12:44.980Z,98998.77
2022-08-12T08:15:12.184Z,99000.77
2022-08-12T08:17:39.255Z,99002.30
2022-08-12T08:20:10.315Z,99003.46
2022-08-12T08:22:42.592Z,99001.98
2022-08-12T08:25:34.484Z,99005.75
2022-08-12T08:28:01.162Z,99001.52
2022-08-12T08:30:29.959Z,99001.23
2022-08-12T08:32:57.231Z,98999.84
2022-08-12T08:35:26.076Z,98997.58
2022-08-12T08:38:32.087Z,98991.88
2022-08-12T08:42:16.029Z,98988.94
2022-08-12T08:44:06.744Z,98995.16
2022-08-12T08:46:38.293Z,98997.11
2022-08-12T08:49:06.290Z,98991.29
2022-08-12T08:51:33.369Z,98994.16
2022-08-12T08:54:00.204Z,98992.35
2022-08-12T08:56:29.272Z,98990.73
2022-08-12T08:58:57.734Z,98989.96
2022-08-12T09:01:26.032Z,98991.95
2022-08-12T09:05:10.073Z,98992.84
2022-08-12T09:06:53.468Z,98985.05
2022-08-12T09:09:21.379Z,98987.07
2022-08-12T09:12:11.110Z,98984.71
2022-08-12T09:17:42.103Z,98992.27
2022-08-12T09:20:15.975Z,98994.19
2022-08-12T09:22:49.209Z,98989.98
2022-08-12T09:28:05.993Z,98991.67
2022-08-12T09:30:42.292Z,98991.80
2022-08-12T09:33:19.317Z,98998.80
2022-08-12T09:36:04.536Z,99001.75
2022-08-12T09:38:35.238Z,99005.93
2022-08-12T09:42:09.073Z,99002.98
2022-08-12T09:44:05.610Z,99000.80
2022-08-12T09:46:34.568Z,99001.82
2022-08-12T09:49:04.195Z,99004.02
2022-08-12T09:51:43.871Z,99002.64
2022-08-12T09:54:33.149Z,98997.52
2022-08-12T09:57:03.624Z,98999.35
2022-08-12T10:00:15.193Z,98993.16
2022-08-12T10:02:44.301Z,98989.16
2022-08-12T10:05:20.251Z,98989.93
2022-08-12T10:07:47.661Z,98989.75
2022-08-12T10:10:23.877Z,98983.06
2022-08-12T10:13:34.920Z,98979.69
2022-08-12T10:16:00.769Z,98977.55
2022-08-12T10:18:32.457Z,98969.95
2022-08-12T10:20:59.454Z,98968.79
2022-08-12T10:23:40.124Z,98969.88
2022-08-12T10:26:38.619Z,98969.79
2022-08-12T10:30:03.513Z,98963.92
2022-08-12T10:32:20.870Z,98964.46
2022-08-12T10:34:53.376Z,98959.40
2022-08-12T10:38:34.603Z,98955.30
2022-08-12T10:40:18.938Z,98954.14
2022-08-12T10:43:02.851Z,98954.08
2022-08-12T10:45:31.384Z,98942.48
2022-08-12T10:48:19.134Z,98936.80
2022-08-12T10:50:56.732Z,98931.48
2022-08-12T10:53:45.558Z,98936.38
2022-08-12T10:56:15.597Z,98934.73
2022-08-12T10:58:45.948Z,98940.50
2022-08-12T11:01:50.008Z,98939.39
2022-08-12T11:04:20.101Z,98934.80
2022-08-12T11:07:10.017Z,98935.53
2022-08-12T11:09:59.773Z,98931.06
2022-08-12T11:12:56.633Z,98934.68
2022-08-12T11:15:32.994Z,98931.33
2022-08-12T11:18:18.575Z,98927.48
2022-08-12T11:20:48.141Z,98919.83
2022-08-12T11:23:25.126Z,98919.86
2022-08-12T11:26:05.492Z,98917.02
2022-08-12T11:28:36.692Z,98912.51
2022-08-12T11:31:12.317Z,98920.84
2022-08-12T11:34:06.044Z,98913.96
2022-08-12T11:36:30.621Z,98915.98
2022-08-12T11:38:58.110Z,98914.56
2022-08-12T11:41:31.878Z,98909.30
2022-08-12T11:44:30.682Z,98910.77
2022-08-12T11:46:50.910Z,98907.91
2022-08-12T11:49:30.540Z,98905.02
2022-08-12T11:51:58.017Z,98902.57
2022-08-12T11:54:25.032Z,98902.38
2022-08-12T11:56:52.344Z,98903.48
2022-08-12T12:02:17.578Z,98911.00
2022-08-12T12:04:46.203Z,98914.95
2022-08-12T12:07:33.701Z,98911.23
2022-08-12T12:10:11.223Z,98912.81
2022-08-12T12:12:38.621Z,98908.69
2022-08-12T12:15:09.828Z,98908.01
2022-08-12T12:17:39.069Z,98903.61
2022-08-12T12:20:09.736Z,98896.20
2022-08-12T12:22:38.557Z,98896.18
2022-08-12T12:25:12.731Z,98890.92
2022-08-12T12:28:04.891Z,98886.45
2022-08-12T12:30:33.004Z,98887.69
2022-08-12T12:32:59.931Z,98884.48
2022-08-12T12:36:06.243Z,98880.33
2022-08-12T12:38:15.145Z,98880.73
2022-08-12T12:40:44.572Z,98877.69
2022-08-12T12:43:13.847Z,98874.95
2022-08-12T12:45:45.803Z,98870.58
2022-08-12T12:48:15.493Z,98867.35
2022-08-12T12:51:12.245Z,98866.47
2022-08-12T12:54:08.036Z,98864.48
2022-08-12T12:56:34.673Z,98855.80
2022-08-12T12:59:03.865Z,98851.98
2022-08-12T13:01:38.321Z,98852.49
2022-08-12T13:04:12.230Z,98849.33
2022-08-12T13:06:42.149Z,98841.77
2022-08-12T13:09:13.282Z,98842.73
2022-08-12T13:11:42.201Z,98833.13
2022-08-12T13:14:28.234Z,98834.48
2022-08-12T13:16:57.527Z,98830.03
2022-08-12T13:19:37.416Z,98831.52
2022-08-12T13:22:23.858Z,98825.37
2022-08-12T13:24:56.894Z,98823.70
2022-08-12T13:27:35.348Z,98821.30
2022-08-12T13:30:11.099Z,98817.55
2022-08-12T13:32:42.674Z,98805.36
2022-08-12T13:35:19.333Z,98806.67
2022-08-12T13:37:59.375Z,98810.35
2022-08-12T13:40:32.346Z,98803.14
2022-08-12T13:43:01.596Z,98807.54
2022-08-12T13:45:30.973Z,98809.42
2022-08-12T13:48:03.868Z,98802.45
2022-08-12T13:50:36.469Z,98797.37
2022-08-12T13:53:23.985Z,98801.95
2022-08-12T13:56:01.539Z,98801.45
2022-08-12T13:58:32.824Z,98797.41
2022-08-12T14:01:05.713Z,98796.48
2022-08-12T14:03:50.609Z,98796.13
2022-08-12T14:06:19.715Z,98800.92
2022-08-12T14:08:49.918Z,98796.60
2022-08-12T14:11:19.435Z,98790.72
2022-08-12T14:14:03.742Z,98785.20
2022-08-12T14:16:48.569Z,98786.23
2022-08-12T14:19:22.447Z,98790.56
2022-08-12T14:21:59.331Z,98792.20
2022-08-12T14:24:31.635Z,98798.66
2022-08-12T14:27:01.801Z,98794.91
2022-08-12T14:29:56.280Z,98790.71
2022-08-12T14:32:18.440Z,98786.95
2022-08-12T14:34:49.196Z,98784.84
2022-08-12T14:37:57.511Z,98786.02
2022-08-12T14:40:04.321Z,98774.81
2022-08-12T14:42:31.192Z,98778.33
2022-08-12T14:45:01.187Z,98776.14
2022-08-12T14:47:34.941Z,98768.51
2022-08-12T14:50:58.402Z,98762.71
2022-08-12T14:58:31.773Z,98758.70
2022-08-12T15:01:14.956Z,98751.20
2022-08-12T15:03:53.046Z,98757.97
2022-08-12T15:06:43.693Z,98759.36
2022-08-12T15:09:15.961Z,98753.95
2022-08-12T15:11:55.725Z,98757.29
2022-08-12T15:14:30.664Z,98749.11
2022-08-12T15:17:00.657Z,98745.95
2022-08-12T15:20:33.220Z,98748.52
2022-08-12T15:22:37.520Z,98746.59
2022-08-12T15:25:07.560Z,98747.11
2022-08-12T15:28:03.987Z,98743.83
2022-08-12T15:30:31.336Z,98744.95
2022-08-12T15:32:59.118Z,98740.16
2022-08-12T15:35:31.472Z,98739.30
2022-08-12T15:38:12.046Z,98738.55
2022-08-12T15:40:48.274Z,98739.11
2022-08-12T15:43:51.355Z,98735.66
2022-08-12T15:46:06.429Z,98739.16
2022-08-12T15:48:34.169Z,98736.38
2022-08-12T15:51:02.856Z,98738.01
2022-08-12T15:53:46.832Z,98737.02
2022-08-12T15:56:29.639Z,98739.48
2022-08-12T15:58:59.321Z,98743.90
2022-08-12T16:01:34.953Z,98743.06
2022-08-12T16:04:05.338Z,98739.92
2022-08-12T16:07:00.577Z,98733.36
2022-08-12T16:09:31.813Z,98736.17
2022-08-12T16:12:12.329Z,98732.23
2022-08-12T16:14:41.564Z,98731.41
2022-08-12T16:17:14.850Z,98731.84
2022-08-12T16:20:03.489Z,98731.66
2022-08-12T16:22:29.706Z,98736.26
2022-08-12T16:24:57.236Z,98736.27
2022-08-12T16:27:25.723Z,98735.98
2022-08-12T16:29:57.700Z,98739.08
2022-08-12T16:32:31.176Z,98736.17
2022-08-12T16:35:00.911Z,98734.38
2022-08-12T16:38:05.036Z,98733.48
2022-08-12T16:40:18.831Z,98726.55
2022-08-12T16:42:53.603Z,98725.46
2022-08-12T16:46:04.942Z,98722.08
2022-08-12T16:48:34.676Z,98717.73
2022-08-12T16:51:08.221Z,98714.06
2022-08-12T16:53:43.842Z,98707.40
2022-08-12T16:56:15.437Z,98700.77
2022-08-12T16:58:43.396Z,98692.95
2022-08-12T17:01:14.059Z,98704.98
2022-08-12T17:03:52.024Z,98704.13
2022-08-12T17:06:27.682Z,98706.15
2022-08-12T17:09:08.621Z,98709.04
2022-08-12T17:11:49.258Z,98710.37
2022-08-12T17:14:23.025Z,98709.12
2022-08-12T17:16:52.121Z,98706.16
2022-08-12T17:20:12.181Z,98705.65
2022-08-12T17:22:09.850Z,98702.48
2022-08-12T17:24:43.803Z,98706.94
2022-08-12T17:27:16.052Z,98708.23
2022-08-12T17:30:00.736Z,98707.40
2022-08-12T17:32:31.454Z,98705.54
2022-08-12T17:35:16.058Z,98701.63
2022-08-12T17:37:44.809Z,98705.58
2022-08-12T17:40:20.811Z,98710.05
2022-08-12T17:43:02.266Z,98709.90
2022-08-12T17:45:31.263Z,98711.79
2022-08-12T17:48:05.166Z,98713.94
2022-08-12T17:50:38.033Z,98714.95
2022-08-12T17:53:10.164Z,98716.05
2022-08-12T17:55:47.859Z,98715.20
2022-08-12T17:58:35.617Z,98715.41
2022-08-12T18:01:11.237Z,98717.00
2022-08-12T18:04:06.951Z,98714.52
2022-08-12T18:06:28.429Z,98715.45
2022-08-12T18:08:58.873Z,98717.34
2022-08-12T18:12:03.804Z,98712.27
2022-08-12T18:14:30.571Z,98717.59
2022-08-12T18:17:00.825Z,98717.02
2022-08-12T18:19:34.276Z,98715.69
2022-08-12T18:22:21.983Z,98713.80
2022-08-12T18:25:03.787Z,98714.10
2022-08-12T18:27:44.667Z,98709.70
2022-08-12T18:30:20.716Z,98715.16
2022-08-12T18:33:03.596Z,98713.58
2022-08-12T18:35:47.719Z,98717.38
2022-08-12T18:38:22.728Z,98719.13
2022-08-12T18:41:09.636Z,98722.62
2022-08-12T18:43:58.872Z,98719.14
2022-08-12T18:46:32.426Z,98722.37
2022-08-12T18:49:17.077Z,98727.63
2022-08-12T18:51:55.115Z,98728.93
2022-08-12T18:54:26.948Z,98735.45
2022-08-12T18:56:57.779Z,98730.25
2022-08-12T18:59:59.970Z,98728.77
2022-08-12T19:02:21.216Z,98723.52
2022-08-12T19:04:53.239Z,98726.58
2022-08-12T19:07:24.117Z,98729.59
2022-08-12T19:09:58.633Z,98727.23
2022-08-12T19:12:42.839Z,98728.50
2022-08-12T19:15:25.800Z,98728.48
2022-08-12T19:18:00.558Z,98728.57
2022-08-12T19:20:30.088Z,98723.33
2022-08-12T19:23:02.631Z,98718.02
2022-08-12T19:26:00.920Z,98717.98
2022-08-12T19:28:30.372Z,98718.15
2022-08-12T19:31:44.724Z,98722.02
2022-08-12T19:34:47.023Z,98724.23
2022-08-12T19:37:16.760Z,98731.91
2022-08-12T19:40:09.104Z,98731.20
2022-08-12T19:42:33.836Z,98732.42
2022-08-12T19:45:05.139Z,98734.17
2022-08-12T19:47:39.284Z,98739.02
2022-08-12T19:50:11.384Z,98737.23
2022-08-12T19:52:40.861Z,98741.84
2022-08-12T19:55:11.534Z,98740.48
2022-08-12T19:58:02.621Z,98743.23
2022-08-12T20:00:32.309Z,98747.36
2022-08-12T20:03:04.775Z,98747.89
2022-08-12T20:06:07.057Z,98745.37
2022-08-12T20:08:32.930Z,98749.61
2022-08-12T20:12:12.294Z,98748.08
2022-08-12T20:14:00.625Z,98751.61
2022-08-12T20:16:53.039Z,98749.84
2022-08-12T20:19:24.768Z,98751.20
2022-08-12T20:22:14.560Z,98754.62
2022-08-12T20:24:42.996Z,98754.79
2022-08-12T20:27:28.771Z,98756.94
2022-08-12T20:29:57.187Z,98755.94
2022-08-12T20:32:29.817Z,98760.07
2022-08-12T20:35:13.322Z,98759.71
2022-08-12T20:38:06.371Z,98762.70
2022-08-12T20:40:38.097Z,98764.29
2022-08-12T20:43:06.446Z,98756.04
2022-08-12T20:45:44.935Z,98755.48
2022-08-12T20:48:18.294Z,98758.58
2022-08-12T20:50:53.385Z,98759.29
2022-08-12T20:53:32.937Z,98759.95
2022-08-12T20:56:30.769Z,98754.25
2022-08-12T20:59:01.268Z,98751.20
2022-08-12T21:01:46.079Z,98747.64
2022-08-12T21:04:47.060Z,98745.95
2022-08-12T21:07:23.464Z,98746.83
2022-08-12T21:09:52.008Z,98746.08
2022-08-12T21:12:27.718Z,98749.48
2022-08-12T21:15:17.006Z,98753.70
2022-08-12T21:18:15.541Z,98755.96
2022-08-12T21:20:52.323Z,98761.36
2022-08-12T21:23:22.895Z,98761.02
2022-08-12T21:25:54.875Z,98758.98
2022-08-12T21:28:22.493Z,98761.20
2022-08-12T21:32:35.119Z,98765.52
2022-08-12T21:33:58.483Z,98765.23
2022-08-12T21:39:37.559Z,98759.41
2022-08-12T21:42:07.097Z,98755.99
2022-08-12T21:45:48.282Z,98755.93
2022-08-12T21:47:24.221Z,98749.55
2022-08-12T21:50:04.253Z,98749.96
2022-08-12T21:52:37.009Z,98748.70
2022-08-12T21:55:08.067Z,98749.23
2022-08-12T21:57:51.249Z,98750.08
2022-08-12T22:00:33.073Z,98755.44
2022-08-12T22:03:17.867Z,98755.58
2022-08-12T22:06:31.807Z,98754.16
2022-08-12T22:09:11.260Z,98751.83
2022-08-12T22:11:49.294Z,98751.22
2022-08-12T22:14:24.282Z,98745.70
2022-08-12T22:16:54.904Z,98747.98
2022-08-12T22:19:23.381Z,98747.04
2022-08-12T22:21:53.739Z,98744.36
2022-08-12T22:24:26.536Z,98747.23
2022-08-12T22:26:59.468Z,98743.90
2022-08-12T22:29:56.809Z,98742.95
2022-08-12T22:32:26.304Z,98744.47
2022-08-12T22:35:23.087Z,98739.30
2022-08-12T22:37:56.046Z,98738.08
2022-08-12T22:40:23.845Z,98738.49
2022-08-12T22:43:06.345Z,98740.69
2022-08-12T22:45:56.542Z,98740.73
2022-08-12T22:48:26.560Z,98741.28
2022-08-12T22:50:59.197Z,98740.82
2022-08-12T22:53:36.238Z,98741.12
2022-08-12T22:56:07.031Z,98745.38
2022-08-12T22:58:41.256Z,98741.48
2022-08-12T23:01:11.362Z,98736.59
2022-08-12T23:03:50.929Z,98732.65
2022-08-12T23:06:24.051Z,98728.61
2022-08-12T23:08:54.599Z,98729.45
2022-08-12T23:11:23.887Z,98728.48
2022-08-12T23:13:57.178Z,98723.64
2022-08-12T23:16:31.109Z,98723.25
2022-08-12T23:19:09.755Z,98723.98
2022-08-12T23:22:05.438Z,98722.88
2022-08-12T23:24:39.095Z,98716.08
2022-08-12T23:27:23.636Z,98711.71
2022-08-12T23:30:17.496Z,98711.63
2022-08-12T23:32:38.853Z,98706.89
2022-08-12T23:35:07.212Z,98702.05
2022-08-12T23:37:47.108Z,98693.67
2022-08-12T23:40:22.078Z,98688.98
2022-08-12T23:42:50.074Z,98688.52
2022-08-12T23:45:20.559Z,98686.08
2022-08-12T23:48:00.449Z,98675.36
2022-08-12T23:50:33.466Z,98675.35
2022-08-12T23:53:17.040Z,98677.13
2022-08-12T23:55:49.915Z,98676.77
2022-08-12T23:58:26.016Z,98673.27
